Pike, California
Current Conditions -  °F | °C
As of 6:40 AM on Monday 26 Jan 2015 (Local Time) from KGOO Reporting Station
Clear Clear  
Wind Chill: 57°   Ceiling: Unl
Heat Index: 57°   Visibility: 10mi
Dew Point: 32°   Wind: 8mph
Humidity: 38%   Direction: 110°ESE
Pressure: 30.09"   Gusts: NA
Location:  39.3506°N, 121.137°W
Report Text: KGOO 261440Z AUTO 11007KT 10SM CLR 14/00 A3009 RMK AO1
Loading
Personal Weather Stations






























Interactive Weather Map New forecast layout! Learn more

10-Day Weather Forecast

Advertisements
Track Severe Weather on mobile